M I D A S
Marine Information and Data Acquisition System
Tripno 2328 of the Zeeleeuw from 2012-06-13 06:36:32 to 2012-06-13 15:00:56
Back to CruiseResearch ActivitiesStationsMapUnderway DataData graphs

EquipmentUnitsComment
TimeDGPSUTC
LatitudeDGPSDM.mWGS84
LongitudeDGPSDM.mWGS84
TemperatureSBE03/SBE38deg celciusITS90
ConductivitySBE21S/mITS90
SalinitySBE21 Practical Salinity Units
ChlorophylAChelsea fluorimeterg/lCalibrated in Aceton
Missing or incorrect values are displayed as -999
Sea surface data collected by the RV Zeeleeuw from 2012-06-13 06:15:50 to 2012-06-13 15:20:09
Time Latitude Longitude Temperature Conductivity Salinity ChlorophylA
2012-06-13 06:16:55 51°13.641 2°55.96 16.9353 0.059984 0.364031 -2.458615
2012-06-13 06:17:54 51°13.66 2°55.88 16.9572 0.059881 0.363408 -2.458615
2012-06-13 06:18:54 51°13.699 2°55.784 16.9608 0.059881 0.36343 -2.458615
2012-06-13 06:19:53 51°13.753 2°55.69 16.9657 0.059881 0.363453 -2.458615
2012-06-13 06:20:54 51°13.831 2°55.615 16.9733 0.059881 0.363475 -2.458615
2012-06-13 06:21:54 51°13.908 2°55.609 16.978 0.059881 0.36349 -2.458615
2012-06-13 06:22:54 51°13.948 2°55.659 16.995 0.059881 0.363527 -2.458615
2012-06-13 06:23:54 51°13.976 2°55.585 16.9857 0.059881 0.363578 -2.458615
2012-06-13 06:24:55 51°14.086 2°55.471 16.9801 0.059881 0.363586 -2.458615
2012-06-13 06:25:54 51°14.211 2°55.35 16.9897 0.059881 0.363608 -2.458615
2012-06-13 06:26:54 51°14.349 2°55.212 16.9916 0.059881 0.363608 -2.458615
2012-06-13 06:27:55 51°14.49 2°55.057 17.0096 0.059881 0.36363 -2.458615
2012-06-13 06:28:53 51°14.637 2°54.937 17.0145 0.059881 0.363645 -2.458615
2012-06-13 06:29:51 51°14.771 2°54.794 17.0116 0.059881 0.36366 -2.458615
2012-06-13 06:30:51 51°14.91 2°54.64 17.033 0.059881 0.363682 -2.458615
2012-06-13 06:31:50 51°15.051 2°54.54 17.021 0.059881 0.363704 -2.458615
2012-06-13 06:32:51 51°15.123 2°54.581 15.406 1.097719 7.587737 -2.458615
2012-06-13 06:33:51 51°15.135 2°54.613 15.2189 3.745831 29.708914 -2.458615
2012-06-13 06:34:51 51°15.152 2°54.677 15.184 3.890451 31.079393 -2.458615
2012-06-13 06:35:51 51°15.208 2°54.716 15.1655 3.912106 31.301061 -2.458615
2012-06-13 06:36:51 51°15.257 2°54.635 15.1637 3.913764 31.327053 -2.458615
2012-06-13 06:37:51 51°15.347 2°54.516 15.1541 3.914282 31.335634 -2.458615
2012-06-13 06:38:51 51°15.458 2°54.406 15.1475 3.912521 31.327195 -2.458615
2012-06-13 06:39:51 51°15.569 2°54.289 15.1397 3.91708 31.374467 -2.458615
2012-06-13 06:40:51 51°15.673 2°54.163 15.1411 3.925784 31.45743 -2.458615
2012-06-13 06:41:51 51°15.762 2°54.014 15.1359 3.921432 31.417929 -2.458615
2012-06-13 06:42:50 51°15.842 2°53.858 15.1208 3.921018 31.420859 -2.458615
2012-06-13 06:43:51 51°15.931 2°53.702 15.1107 3.912936 31.358665 -2.458615
2012-06-13 06:44:51 51°16.022 2°53.556 15.0912 3.908066 31.327108 -2.458615
2012-06-13 06:45:50 51°16.112 2°53.409 15.0693 3.910864 31.369969 -2.458615
2012-06-13 06:46:50 51°16.2 2°53.252 15.0415 3.91045 31.384838 -2.458615
2012-06-13 06:47:51 51°16.296 2°53.107 15.0337 3.912626 31.419569 -2.458615
2012-06-13 06:48:51 51°16.409 2°52.994 15.0437 3.915942 31.449224 -2.458615
2012-06-13 06:49:50 51°16.525 2°52.893 15.0455 3.917703 31.458324 -2.458615
2012-06-13 06:50:51 51°16.655 2°52.81 15.0235 3.91905 31.474366 -2.458615
2012-06-13 06:51:50 51°16.777 2°52.724 15.0085 3.927651 31.566669 -2.458615
2012-06-13 06:52:51 51°16.9 2°52.625 14.9773 3.933454 31.635367 -2.458615
2012-06-13 06:53:50 51°17.018 2°52.524 14.96 3.941433 31.727028 -2.458615
2012-06-13 06:54:51 51°17.143 2°52.431 14.9612 3.967546 31.972862 -2.458615
2012-06-13 06:55:50 51°17.301 2°52.329 14.9594 3.98993 32.173981 -2.458615
2012-06-13 06:56:50 51°17.48 2°52.191 14.9638 3.994593 32.213854 -2.458615
2012-06-13 06:57:50 51°17.648 2°52.024 14.936 3.999153 32.261696 -2.458615
2012-06-13 06:58:50 51°17.806 2°51.84 14.9522 4.004231 32.317659 -2.458615
2012-06-13 06:59:51 51°17.974 2°51.663 14.9375 3.994179 32.219013 -2.458615
2012-06-13 07:00:50 51°18.138 2°51.496 14.925 3.988168 32.177943 -2.458615
2012-06-13 07:01:51 51°18.307 2°51.324 14.9316 3.986614 32.170109 -2.458615
2012-06-13 07:02:50 51°18.472 2°51.161 14.9401 3.986096 32.162033 -2.458615
2012-06-13 07:03:50 51°18.636 2°50.984 14.9478 3.992728 32.210751 -2.458615
2012-06-13 07:04:50 51°18.798 2°50.805 14.9413 3.994386 32.22498 -2.458615
2012-06-13 07:05:51 51°18.974 2°50.643 14.928 3.99335 32.219079 -2.458615
2012-06-13 07:06:50 51°19.141 2°50.481 14.9152 3.992936 32.22698 -2.458615
2012-06-13 07:07:51 51°19.306 2°50.296 14.8967 3.987443 32.191239 -2.458615
2012-06-13 07:08:51 51°19.471 2°50.125 14.8939 3.988273 32.20828 -2.458615
2012-06-13 07:09:50 51°19.632 2°49.959 14.8864 4.001019 32.327184 -2.458615
2012-06-13 07:10:51 51°19.795 2°49.782 14.8789 4.003092 32.352734 -2.458615
2012-06-13 07:11:50 51°19.961 2°49.628 14.8822 4.001641 32.344475 -2.458615
2012-06-13 07:12:51 51°20.129 2°49.458 14.8958 4.006927 32.385223 -2.458615
2012-06-13 07:13:50 51°20.292 2°49.292 14.902 3.994698 32.26613 -2.458615
2012-06-13 07:14:50 51°20.456 2°49.124 14.918 3.987547 32.196275 -2.458615
2012-06-13 07:15:51 51°20.625 2°48.951 14.9362 3.994905 32.246751 -2.458615
2012-06-13 07:16:50 51°20.79 2°48.789 14.9506 4.005371 32.325858 -2.458615
2012-06-13 07:17:51 51°20.963 2°48.62 14.9631 4.015113 32.405281 -2.458615
2012-06-13 07:18:50 51°21.128 2°48.45 14.9703 4.019362 32.433201 -2.458615
2012-06-13 07:19:50 51°21.294 2°48.273 14.955 4.019673 32.433935 -2.458615
2012-06-13 07:20:50 51°21.468 2°48.109 14.9184 4.020917 32.465097 -2.458615
2012-06-13 07:21:50 51°21.643 2°47.954 14.8156 4.031178 32.592096 -2.458615
2012-06-13 07:22:51 51°21.807 2°47.776 14.748 4.058852 32.932104 -2.458615
2012-06-13 07:23:51 51°21.966 2°47.598 14.7323 4.070564 33.078375 -2.458615
2012-06-13 07:24:51 51°22.133 2°47.436 14.7476 4.076369 33.135263 -2.458615
2012-06-13 07:25:50 51°22.302 2°47.283 14.7531 4.07015 33.06614 -2.458615
2012-06-13 07:26:51 51°22.471 2°47.114 14.7583 4.069631 33.058619 -2.458615
2012-06-13 07:27:50 51°22.64 2°46.957 14.7586 4.068284 33.044288 -2.458615
2012-06-13 07:28:51 51°22.809 2°46.781 14.7585 4.070046 33.060259 -2.458615
2012-06-13 07:29:50 51°22.976 2°46.62 14.7657 4.072326 33.078105 -2.458615
2012-06-13 07:30:51 51°23.148 2°46.449 14.7706 4.074503 33.09289 -2.458615
2012-06-13 07:31:50 51°23.289 2°46.244 14.7684 4.07782 33.120834 -2.458615
2012-06-13 07:32:50 51°23.395 2°45.99 14.7403 4.078856 33.137302 -2.458615
2012-06-13 07:33:51 51°23.524 2°45.748 14.6751 4.076576 33.144933 -2.458615
2012-06-13 07:34:51 51°23.656 2°45.517 14.5614 4.079479 33.235911 -2.458615
2012-06-13 07:35:50 51°23.786 2°45.288 14.4816 4.094925 33.476805 -2.458615
2012-06-13 07:36:50 51°23.917 2°45.056 14.4411 4.09731 33.544719 -2.458615
2012-06-13 07:37:50 51°24.034 2°44.807 14.3988 4.098243 33.585066 -2.458615
2012-06-13 07:38:50 51°24.152 2°44.559 14.376 4.101561 33.651688 -2.458615
2012-06-13 07:39:51 51°24.268 2°44.318 14.367 4.108506 33.735707 -2.458615
2012-06-13 07:40:50 51°24.33 2°44.183 14.3575 4.111616 33.773705 -2.458615
2012-06-13 07:41:50 51°24.381 2°44.094 14.3527 4.111512 33.777863 -2.458615
2012-06-13 07:42:50 51°24.432 2°44.025 14.3331 4.111409 33.782752 -2.458615
2012-06-13 07:43:51 51°24.476 2°43.956 14.2642 4.112135 33.819383 -2.458615
2012-06-13 07:44:50 51°24.509 2°43.881 14.1145 4.113794 33.898439 -2.458615
2012-06-13 07:45:50 51°24.549 2°43.815 14.0915 4.107576 33.939118 -2.458615
2012-06-13 07:46:51 51°24.598 2°43.763 14.0839 4.105815 33.941321 -2.458615
2012-06-13 07:47:50 51°24.631 2°43.712 14.0771 4.106437 33.955195 -2.458615
2012-06-13 07:48:51 51°24.65 2°43.695 14.0667 4.106748 33.961765 -2.458615
2012-06-13 07:49:50 51°24.664 2°43.698 14.0645 4.10737 33.976389 -2.458615
2012-06-13 07:50:51 51°24.668 2°43.715 14.0684 4.106851 33.969381 -2.458615
2012-06-13 07:51:50 51°24.67 2°43.732 14.07 4.107059 33.969076 -2.458615
2012-06-13 07:52:51 51°24.673 2°43.752 14.0652 4.10737 33.972688 -2.458615
2012-06-13 07:53:50 51°24.677 2°43.771 14.0633 4.108095 33.980872 -2.458615
2012-06-13 07:54:50 51°24.673 2°43.752 14.0591 4.10851 33.986923 -2.458615
2012-06-13 07:55:51 51°24.672 2°43.725 14.0553 4.108925 33.992976 -2.458615
2012-06-13 07:56:50 51°24.677 2°43.697 14.055 4.10851 33.992848 -2.458615
2012-06-13 07:57:51 51°24.684 2°43.694 14.0545 4.108199 33.989234 -2.458615
2012-06-13 07:58:51 51°24.69 2°43.71 14.0564 4.109132 33.996373 -2.458615
2012-06-13 07:59:51 51°24.692 2°43.74 14.0564 4.108925 33.993716 -2.458615
2012-06-13 08:00:51 51°24.695 2°43.764 14.0542 4.108821 33.992759 -2.458615
2012-06-13 08:01:51 51°24.678 2°43.752 14.0524 4.108821 33.99424 -2.458615
2012-06-13 08:02:50 51°24.65 2°43.688 14.0553 4.108925 33.992235 -2.458615
2012-06-13 08:03:51 51°24.658 2°43.683 14.0531 4.109236 33.994367 -2.458615
2012-06-13 08:04:54 51°24.661 2°43.705 14.0509 4.108406 33.989668 -2.458615
2012-06-13 08:05:52 51°24.665 2°43.719 14.0528 4.107266 33.982095 -2.458615
2012-06-13 08:06:51 51°24.668 2°43.727 14.0538 4.107577 33.98645 -2.458615
2012-06-13 08:07:50 51°24.672 2°43.717 14.0531 4.107473 33.984751 -2.458615
2012-06-13 08:08:50 51°24.673 2°43.713 14.0519 4.107059 33.981661 -2.458615
2012-06-13 08:09:50 51°24.678 2°43.722 14.0518 4.106852 33.979745 -2.458615
2012-06-13 08:10:50 51°24.683 2°43.727 14.0528 4.107266 33.983576 -2.458615
2012-06-13 08:11:51 51°24.68 2°43.697 14.0516 4.106852 33.979005 -2.458615
2012-06-13 08:12:50 51°24.678 2°43.686 14.0497 4.107059 33.983883 -2.458615
2012-06-13 08:13:51 51°24.681 2°43.692 14.0485 4.106644 33.980792 -2.458615
2012-06-13 08:14:50 51°24.686 2°43.712 14.0502 4.106126 33.974522 -2.458615
2012-06-13 08:15:51 51°24.69 2°43.732 14.0501 4.10623 33.97622 -2.458615
2012-06-13 08:16:50 51°24.69 2°43.737 14.049 4.106333 33.976437 -2.458615
2012-06-13 08:17:50 51°24.664 2°43.717 14.0499 4.106022 33.974304 -2.458615
2012-06-13 08:18:51 51°24.658 2°43.698 14.051 4.106126 33.973041 -2.458615
2012-06-13 08:19:50 51°24.662 2°43.703 14.0547 4.105919 33.970385 -2.458615
2012-06-13 08:20:51 51°24.668 2°43.71 14.0515 4.105815 33.968687 -2.458615
2012-06-13 08:21:50 51°24.675 2°43.722 14.0533 4.105608 33.967512 -2.458615
2012-06-13 08:22:51 51°24.68 2°43.737 14.0527 4.105711 33.966249 -2.458615
2012-06-13 08:23:50 51°24.685 2°43.752 14.0551 4.105297 33.962418 -2.458615
2012-06-13 08:24:50 51°24.688 2°43.769 14.0578 4.105193 33.95924 -2.458615
2012-06-13 08:25:50 51°24.691 2°43.787 14.058 4.105711 33.963288 -2.458615
2012-06-13 08:26:51 51°24.694 2°43.805 14.0562 4.1054 33.960416 -2.458615
2012-06-13 08:27:51 51°24.697 2°43.823 14.057 4.105193 33.9585 -2.458615
2012-06-13 08:28:50 51°24.701 2°43.842 14.0573 4.105297 33.958718 -2.458615
2012-06-13 08:29:51 51°24.704 2°43.86 14.0592 4.105089 33.956063 -2.458615
2012-06-13 08:30:50 51°24.706 2°43.868 14.0593 4.105089 33.955323 -2.458615
2012-06-13 08:31:51 51°24.718 2°43.848 14.0595 4.104882 33.951929 -2.458615
2012-06-13 08:32:50 51°24.758 2°43.83 14.0585 4.104778 33.950232 -2.458615
2012-06-13 08:33:50 51°24.836 2°43.873 14.054 4.104675 33.952233 -2.458615
2012-06-13 08:34:50 51°24.988 2°43.884 14.0488 4.1054 33.962636 -2.458615
2012-06-13 08:35:50 51°25.181 2°43.978 14.0341 4.105193 33.966642 -2.458615
2012-06-13 08:36:50 51°25.373 2°44.125 14.0185 4.104779 33.97614 -2.458615
2012-06-13 08:37:50 51°25.554 2°44.304 14.019 4.104261 33.983206 -2.458615
2012-06-13 08:38:51 51°25.711 2°44.542 14.0348 4.103639 33.973008 -2.458615
2012-06-13 08:39:50 51°25.858 2°44.775 14.0544 4.10312 33.954147 -2.458615
2012-06-13 08:40:51 51°26.022 2°45.001 14.0731 4.103949 33.943312 -2.458615
2012-06-13 08:41:50 51°26.181 2°45.216 14.0992 4.104882 33.937142 -2.458615
2012-06-13 08:42:51 51°26.339 2°45.454 14.1179 4.105296 33.918814 -2.458615
2012-06-13 08:43:50 51°26.498 2°45.675 14.186 4.105607 33.901768 -2.458615
2012-06-13 08:44:51 51°26.673 2°45.875 14.1784 4.104466 33.84049 -2.458615
2012-06-13 08:45:51 51°26.842 2°46.083 14.2002 4.104984 33.843793 -2.458615
2012-06-13 08:46:50 51°27.008 2°46.287 14.2588 4.102185 33.788696 -2.458615
2012-06-13 08:47:51 51°27.181 2°46.492 14.2759 4.097727 33.714084 -2.458615
2012-06-13 08:48:51 51°27.351 2°46.698 14.2933 4.095032 33.669643 -2.458615
2012-06-13 08:49:51 51°27.517 2°46.915 14.3225 4.093062 33.636279 -2.458615
2012-06-13 08:50:51 51°27.685 2°47.125 14.4012 4.086013 33.534634 -2.458615
2012-06-13 08:51:50 51°27.855 2°47.327 14.4177 4.071605 33.356569 -2.458615
2012-06-13 08:52:50 51°28.025 2°47.544 14.4529 4.069014 33.311329 -2.458615
2012-06-13 08:53:51 51°28.195 2°47.766 14.4697 4.056368 33.163674 -2.458615
2012-06-13 08:54:51 51°28.374 2°47.966 14.476 4.050978 33.103112 -2.458615
2012-06-13 08:55:50 51°28.545 2°48.171 14.4668 4.048698 33.080188 -2.458615
2012-06-13 08:56:51 51°28.721 2°48.387 14.4576 4.048491 33.08328 -2.458615
2012-06-13 08:57:51 51°28.89 2°48.612 14.3918 4.054606 33.159018 -2.458615
2012-06-13 08:58:50 51°29.056 2°48.83 14.3148 4.078239 33.442475 -2.458615
2012-06-13 08:59:50 51°29.229 2°49.044 14.3365 4.088294 33.570756 -2.458615
2012-06-13 09:00:51 51°29.4 2°49.268 14.3544 4.084044 33.512248 -2.458615
2012-06-13 09:01:51 51°29.549 2°49.528 14.3706 4.080623 33.468631 -2.458615
2012-06-13 09:02:50 51°29.69 2°49.789 14.4168 4.076166 33.409801 -2.458615
2012-06-13 09:03:51 51°29.849 2°50.035 14.4473 4.06891 33.304641 -2.458615
2012-06-13 09:04:50 51°30.001 2°50.276 14.4624 4.063209 33.231096 -2.458615
2012-06-13 09:05:51 51°30.156 2°50.529 14.4659 4.068598 33.270267 -2.458615
2012-06-13 09:06:50 51°30.311 2°50.769 14.477 4.063209 33.213938 -2.458615
2012-06-13 09:07:50 51°30.459 2°51.023 14.4819 4.06041 33.179847 -2.458615
2012-06-13 09:08:50 51°30.613 2°51.269 14.4825 4.060721 33.181255 -2.458615
2012-06-13 09:09:51 51°30.773 2°51.517 14.4715 4.056264 33.139907 -2.458615
2012-06-13 09:10:51 51°30.928 2°51.767 14.4687 4.0516 33.099526 -2.458615
2012-06-13 09:11:51 51°31.056 2°52.024 14.4776 4.047765 33.068128 -2.458615
2012-06-13 09:12:51 51°31.149 2°52.21 14.5031 4.050667 33.081775 -2.458615
2012-06-13 09:13:50 51°31.202 2°52.329 14.5056 4.057197 33.127042 -2.458615
2012-06-13 09:14:51 51°31.227 2°52.446 14.4968 4.062068 33.189973 -2.458615
2012-06-13 09:15:54 51°31.242 2°52.459 14.2021 4.064349 33.219337 -2.458615
2012-06-13 09:16:53 51°31.256 2°52.462 14.3014 4.077723 33.560183 -2.458615
2012-06-13 09:17:53 51°31.267 2°52.469 14.444 4.065075 33.311954 -2.458615
2012-06-13 09:18:51 51°31.273 2°52.485 14.4551 4.063312 33.223461 -2.458615
2012-06-13 09:19:51 51°31.273 2°52.504 14.5106 4.063312 33.20417 -2.458615
2012-06-13 09:20:51 51°31.262 2°52.521 14.5203 4.062482 33.163094 -2.458615
2012-06-13 09:21:51 51°31.249 2°52.529 14.5139 4.063208 33.163292 -2.458615
2012-06-13 09:22:51 51°31.24 2°52.527 14.377 4.066007 33.22303 -2.458615
2012-06-13 09:23:51 51°31.239 2°52.527 14.479 4.067459 33.305018 -2.458615
2012-06-13 09:24:50 51°31.243 2°52.53 14.5151 4.061343 33.176224 -2.458615
2012-06-13 09:25:50 51°31.247 2°52.534 14.5069 4.059891 33.13949 -2.458615
2012-06-13 09:26:50 51°31.252 2°52.533 14.5165 4.059477 33.139985 -2.458615
2012-06-13 09:27:51 51°31.257 2°52.526 14.5175 4.058958 33.129571 -2.458615
2012-06-13 09:28:50 51°31.26 2°52.517 14.5157 4.058855 33.124358 -2.458615
2012-06-13 09:29:50 51°31.264 2°52.511 14.5189 4.059477 33.135003 -2.458615
2012-06-13 09:30:51 51°31.266 2°52.506 14.5153 4.05844 33.123428 -2.458615
2012-06-13 09:31:50 51°31.268 2°52.503 14.5209 4.057093 33.11258 -2.458615
2012-06-13 09:32:51 51°31.27 2°52.499 14.5164 4.055538 33.094157 -2.458615
2012-06-13 09:33:50 51°31.27 2°52.493 14.5147 4.055124 33.096778 -2.458615
2012-06-13 09:34:51 51°31.272 2°52.488 14.5156 4.053983 33.09066 -2.458615
2012-06-13 09:35:50 51°31.272 2°52.485 14.5241 4.05274 33.072939 -2.458615
2012-06-13 09:36:50 51°31.271 2°52.486 14.5246 4.051703 33.056402 -2.458615
2012-06-13 09:37:50 51°31.272 2°52.486 14.5231 4.051496 33.055935 -2.458615
2012-06-13 09:38:51 51°31.272 2°52.487 14.5208 4.052118 33.060176 -2.458615
2012-06-13 09:39:51 51°31.271 2°52.487 14.5306 4.05274 33.066548 -2.458615
2012-06-13 09:40:51 51°31.272 2°52.487 14.5354 4.052221 33.056152 -2.458615
2012-06-13 09:41:50 51°31.271 2°52.487 14.5346 4.052739 33.05874 -2.458615
2012-06-13 09:42:51 51°31.27 2°52.488 14.5327 4.052843 33.058973 -2.458615
2012-06-13 09:43:51 51°31.27 2°52.489 14.5329 4.052843 33.058264 -2.458615
2012-06-13 09:44:51 51°31.27 2°52.49 14.5401 4.053569 33.064157 -2.458615
2012-06-13 09:45:51 51°31.27 2°52.491 14.5402 4.053776 33.062496 -2.458615
2012-06-13 09:46:50 51°31.27 2°52.492 14.534 4.053672 33.061552 -2.458615
2012-06-13 09:47:51 51°31.27 2°52.49 14.5445 4.055123 33.076887 -2.458615
2012-06-13 09:48:50 51°31.27 2°52.49 14.5456 4.055952 33.078754 -2.458615
2012-06-13 09:49:50 51°31.27 2°52.49 14.5534 4.055434 33.0712 -2.458615
2012-06-13 09:50:51 51°31.27 2°52.49 14.5588 4.057611 33.086746 -2.458615
2012-06-13 09:51:51 51°31.27 2°52.49 14.5744 4.058232 33.083177 -2.458615
2012-06-13 09:52:51 51°31.271 2°52.49 14.5662 4.061963 33.11073 -2.458615
2012-06-13 09:53:50 51°31.272 2°52.49 14.57 4.061134 33.105318 -2.458615
2012-06-13 09:54:50 51°31.272 2°52.488 14.5751 4.061652 33.107192 -2.458615
2012-06-13 09:55:51 51°31.271 2°52.486 14.5819 4.061549 33.100571 -2.458615
2012-06-13 09:56:50 51°31.271 2°52.485 14.5802 4.063414 33.112569 -2.458615
2012-06-13 09:57:51 51°31.27 2°52.484 14.5807 4.064762 33.126242 -2.458615
2012-06-13 09:58:51 51°31.271 2°52.481 14.5787 4.065073 33.12907 -2.458615
2012-06-13 09:59:51 51°31.27 2°52.481 14.5838 4.06642 33.142745 -2.458615
2012-06-13 10:00:51 51°31.27 2°52.481 14.5858 4.067042 33.142718 -2.458615
2012-06-13 10:01:51 51°31.271 2°52.482 14.5848 4.068804 33.158032 -2.458615
2012-06-13 10:02:51 51°31.271 2°52.483 14.583 4.070151 33.172419 -2.458615
2012-06-13 10:03:50 51°31.271 2°52.482 14.5911 4.07067 33.174999 -2.458615
2012-06-13 10:04:50 51°31.271 2°52.483 14.5907 4.07067 33.171445 -2.458615
2012-06-13 10:05:51 51°31.271 2°52.486 14.5913 4.072224 33.185584 -2.458615
2012-06-13 10:06:51 51°31.272 2°52.488 14.5935 4.072535 33.185567 -2.458615
2012-06-13 10:07:50 51°31.272 2°52.489 14.5892 4.071602 33.177795 -2.458615
2012-06-13 10:08:51 51°31.271 2°52.489 14.5902 4.072328 33.185815 -2.458615
2012-06-13 10:09:50 51°31.272 2°52.489 14.5913 4.072121 33.18393 -2.458615
2012-06-13 10:10:50 51°31.271 2°52.488 14.5922 4.071913 33.181334 -2.458615
2012-06-13 10:11:51 51°31.271 2°52.487 14.593 4.072328 33.184393 -2.458615
2012-06-13 10:12:50 51°31.271 2°52.487 14.5939 4.072121 33.181086 -2.458615
2012-06-13 10:13:50 51°31.271 2°52.487 14.5913 4.07295 33.190049 -2.458615
2012-06-13 10:14:50 51°31.271 2°52.487 14.5912 4.073779 33.199013 -2.458615
2012-06-13 10:15:51 51°31.271 2°52.486 14.5917 4.074297 33.203015 -2.458615
2012-06-13 10:16:50 51°31.271 2°52.485 14.5887 4.074505 33.2049 -2.458615
2012-06-13 10:17:51 51°31.27 2°52.484 14.5881 4.074608 33.208689 -2.458615
2012-06-13 10:18:50 51°31.269 2°52.484 14.5902 4.074505 33.207035 -2.458615
2012-06-13 10:19:50 51°31.27 2°52.483 14.5924 4.074919 33.208671 -2.458615
2012-06-13 10:20:50 51°31.27 2°52.483 14.5902 4.07523 33.210787 -2.458615
2012-06-13 10:21:50 51°31.27 2°52.483 14.5919 4.075126 33.209845 -2.458615
2012-06-13 10:22:51 51°31.27 2°52.484 14.5911 4.075126 33.209845 -2.458615
2012-06-13 10:23:50 51°31.27 2°52.485 14.5897 4.075748 33.214789 -2.458615
2012-06-13 10:24:50 51°31.27 2°52.485 14.5892 4.075334 33.213154 -2.458615
2012-06-13 10:25:50 51°31.27 2°52.485 14.5916 4.074815 33.207728 -2.458615
2012-06-13 10:26:50 51°31.27 2°52.486 14.5916 4.074608 33.203708 -2.458615
2012-06-13 10:27:50 51°31.27 2°52.485 14.5867 4.075023 33.210325 -2.458615
2012-06-13 10:28:50 51°31.269 2°52.484 14.5911 4.073779 33.200436 -2.458615
2012-06-13 10:29:51 51°31.269 2°52.481 14.5876 4.074194 33.201361 -2.458615
2012-06-13 10:30:50 51°31.268 2°52.48 14.5951 4.07409 33.198995 -2.458615
2012-06-13 10:31:50 51°31.268 2°52.48 14.5899 4.074297 33.198746 -2.458615
2012-06-13 10:32:51 51°31.269 2°52.48 14.588 4.075541 33.213616 -2.458615
2012-06-13 10:33:51 51°31.269 2°52.481 14.5884 4.074919 33.209383 -2.458615
2012-06-13 10:34:50 51°31.269 2°52.483 14.588 4.074919 33.210094 -2.458615
2012-06-13 10:35:50 51°31.262 2°52.477 14.5913 4.075645 33.214558 -2.458615
2012-06-13 10:36:50 51°31.251 2°52.471 14.5914 4.075852 33.216444 -2.458615
2012-06-13 10:37:51 51°31.238 2°52.472 14.5883 4.076785 33.227065 -2.458615
2012-06-13 10:38:50 51°31.226 2°52.47 14.5895 4.077303 33.232491 -2.458615
2012-06-13 10:39:51 51°31.192 2°52.536 14.5739 4.078236 33.248815 -2.458615
2012-06-13 10:40:50 51°31.228 2°52.644 14.5781 4.076578 33.238001 -2.458615
2012-06-13 10:41:51 51°31.303 2°52.715 14.5803 4.0772 33.240809 -2.458615
2012-06-13 10:42:51 51°31.452 2°52.671 14.5975 4.076889 33.232993 -2.458615
2012-06-13 10:43:50 51°31.62 2°52.624 14.5988 4.079273 33.256821 -2.458615
2012-06-13 10:44:50 51°31.794 2°52.595 14.6063 4.077925 33.223909 -2.458615
2012-06-13 10:45:50 51°31.985 2°52.533 14.553 4.079583 33.246823 -2.458615
2012-06-13 10:46:50 51°32.178 2°52.431 14.5464 4.080102 33.284344 -2.458615
2012-06-13 10:47:50 51°32.374 2°52.348 14.5693 4.080206 33.289573 -2.458615
2012-06-13 10:48:50 51°32.571 2°52.273 14.5579 4.079687 33.263446 -2.458615
2012-06-13 10:49:50 51°32.766 2°52.188 14.4322 4.082383 33.32584 -2.458615
2012-06-13 10:50:50 51°32.967 2°52.242 14.3144 4.082073 33.40765 -2.458615
2012-06-13 10:51:50 51°33.15 2°52.393 14.0671 4.087155 33.638106 -2.458615
2012-06-13 10:52:50 51°33.301 2°52.608 14.0375 4.078554 33.677332 -2.458615
2012-06-13 10:53:50 51°33.443 2°52.844 14.062 4.071402 33.625317 -2.458615
2012-06-13 10:54:50 51°33.572 2°53.099 14.0858 4.071505 33.619686 -2.458615
2012-06-13 10:55:50 51°33.684 2°53.376 14.1097 4.072231 33.605165 -2.458615
2012-06-13 10:56:50 51°33.784 2°53.665 14.1192 4.072956 33.597235 -2.458615
2012-06-13 10:57:50 51°33.852 2°53.974 14.0923 4.0742 33.603576 -2.458615
2012-06-13 10:58:50 51°33.892 2°54.156 14.0829 4.072645 33.609715 -2.458615
2012-06-13 10:59:50 51°33.924 2°54.236 14.0686 4.071505 33.607983 -2.458615
2012-06-13 11:00:50 51°33.946 2°54.284 14.0861 4.070365 33.606251 -2.458615
2012-06-13 11:01:50 51°33.959 2°54.317 14.0632 4.071091 33.610744 -2.458615
2012-06-13 11:02:50 51°33.969 2°54.34 14.0699 4.069744 33.607102 -2.458615
2012-06-13 11:03:50 51°33.977 2°54.357 14.0693 4.070054 33.604848 -2.458615
2012-06-13 11:04:50 51°33.982 2°54.373 14.0716 4.070054 33.609968 -2.458615
2012-06-13 11:05:50 51°33.985 2°54.388 14.0785 4.070054 33.604848 -2.458615
2012-06-13 11:06:50 51°33.986 2°54.401 14.0811 4.07078 33.602029 -2.458615
2012-06-13 11:07:50 51°33.987 2°54.411 14.0773 4.070883 33.602984 -2.458615
2012-06-13 11:08:50 51°33.986 2°54.42 14.0851 4.070573 33.603043 -2.458615
2012-06-13 11:09:51 51°33.984 2°54.428 14.0853 4.071609 33.610401 -2.458615
2012-06-13 11:10:50 51°33.982 2°54.434 14.0945 4.071816 33.607924 -2.458615
2012-06-13 11:11:51 51°33.98 2°54.441 14.0756 4.072231 33.610281 -2.458615
2012-06-13 11:12:50 51°33.978 2°54.447 14.0789 4.070883 33.608102 -2.458615
2012-06-13 11:13:50 51°33.975 2°54.453 14.0867 4.07078 33.603491 -2.458615
2012-06-13 11:14:50 51°33.971 2°54.459 14.0845 4.071505 33.604328 -2.458615
2012-06-13 11:15:50 51°33.968 2°54.465 14.0981 4.071091 33.601239 -2.458615
2012-06-13 11:16:50 51°33.966 2°54.468 14.0886 4.072023 33.603255 -2.458615
2012-06-13 11:17:50 51°33.963 2°54.472 14.0865 4.071091 33.599046 -2.458615
2012-06-13 11:18:50 51°33.959 2°54.473 14.0799 4.071091 33.602701 -2.458615
2012-06-13 11:19:50 51°33.955 2°54.474 14.0969 4.07078 33.599836 -2.458615
2012-06-13 11:20:50 51°33.951 2°54.475 14.0975 4.071712 33.596007 -2.458615
2012-06-13 11:21:50 51°33.948 2°54.476 14.1003 4.071505 33.595559 -2.458615
2012-06-13 11:22:50 51°33.945 2°54.479 14.1153 4.07192 33.594264 -2.458615
2012-06-13 11:23:50 51°33.943 2°54.482 14.1187 4.072438 33.591733 -2.458615
2012-06-13 11:24:50 51°33.94 2°54.486 14.1321 4.072852 33.59117 -2.458615
2012-06-13 11:25:52 51°33.936 2°54.49 14.1319 4.073267 33.587688 -2.458615
2012-06-13 11:26:54 51°33.934 2°54.493 14.1557 4.073888 33.580279 -2.458615
2012-06-13 11:27:51 51°33.931 2°54.496 14.1495 4.075028 33.579831 -2.458615
2012-06-13 11:28:50 51°33.928 2°54.499 14.1491 4.073888 33.572988 -2.458615
2012-06-13 11:29:51 51°33.924 2°54.501 14.1509 4.073785 33.56839 -2.458615
2012-06-13 11:30:50 51°33.92 2°54.502 14.1538 4.07451 33.575793 -2.458615
2012-06-13 11:31:50 51°33.917 2°54.503 14.1732 4.074717 33.571141 -2.458615
2012-06-13 11:32:50 51°33.913 2°54.503 14.1878 4.075961 33.569465 -2.458615
2012-06-13 11:33:50 51°33.91 2°54.503 14.1656 4.077205 33.569976 -2.458615
2012-06-13 11:34:50 51°33.907 2°54.502 14.1789 4.075443 33.571984 -2.458615
2012-06-13 11:35:50 51°33.903 2°54.501 14.1709 4.075961 33.56728 -2.458615
2012-06-13 11:36:50 51°33.9 2°54.501 14.1701 4.075754 33.566103 -2.458615
2012-06-13 11:37:50 51°33.896 2°54.501 14.1645 4.075028 33.563802 -2.458615
2012-06-13 11:38:51 51°33.891 2°54.501 14.1667 4.074303 33.560044 -2.458615
2012-06-13 11:39:50 51°33.889 2°54.5 14.1637 4.073577 33.556285 -2.458615
2012-06-13 11:40:50 51°33.886 2°54.498 14.1724 4.073163 33.548833 -2.458615
2012-06-13 11:41:50 51°33.882 2°54.497 14.1839 4.074303 33.55058 -2.458615
2012-06-13 11:42:50 51°33.878 2°54.493 14.1801 4.073992 33.548449 -2.458615
2012-06-13 11:43:50 51°33.873 2°54.49 14.1824 4.073577 33.541 -2.458615
2012-06-13 11:44:50 51°33.869 2°54.487 14.1839 4.073473 33.540047 -2.458615
2012-06-13 11:45:51 51°33.864 2°54.483 14.1929 4.07337 33.536185 -2.458615
2012-06-13 11:46:50 51°33.861 2°54.479 14.1998 4.074199 33.533624 -2.458615
2012-06-13 11:47:51 51°33.857 2°54.475 14.1924 4.074199 33.532897 -2.458615
2012-06-13 11:48:50 51°33.853 2°54.472 14.1767 4.072437 33.526885 -2.458615
2012-06-13 11:49:51 51°33.85 2°54.468 14.1685 4.070157 33.513927 -2.458615
2012-06-13 11:50:50 51°33.846 2°54.465 14.1703 4.069327 33.508487 -2.458615
2012-06-13 11:51:50 51°33.842 2°54.466 14.1736 4.068913 33.504676 -2.458615
2012-06-13 11:52:51 51°33.842 2°54.47 14.1935 4.068809 33.502997 -2.458615
2012-06-13 11:53:50 51°33.841 2°54.477 14.1859 4.070467 33.498619 -2.458615
2012-06-13 11:54:50 51°33.843 2°54.483 14.1873 4.069535 33.499491 -2.458615
2012-06-13 11:55:50 51°33.846 2°54.491 14.1817 4.069535 33.495859 -2.458615
2012-06-13 11:56:50 51°33.847 2°54.496 14.1615 4.068602 33.497458 -2.458615
2012-06-13 11:57:50 51°33.846 2°54.498 14.1878 4.06684 33.49289 -2.458615
2012-06-13 11:58:50 51°33.844 2°54.498 14.2063 4.068602 33.485837 -2.458615
2012-06-13 11:59:50 51°33.842 2°54.498 14.1869 4.07026 33.488003 -2.458615
2012-06-13 12:00:50 51°33.841 2°54.501 14.1639 4.068187 33.493648 -2.458615
2012-06-13 12:01:51 51°33.843 2°54.506 14.1626 4.066633 33.485899 -2.458615
2012-06-13 12:02:50 51°33.849 2°54.52 14.1484 4.0657 33.487497 -2.458615
2012-06-13 12:03:50 51°33.861 2°54.534 14.1655 4.065182 33.479826 -2.458615
2012-06-13 12:04:50 51°33.867 2°54.54 14.1654 4.065596 33.481458 -2.458615
2012-06-13 12:05:51 51°33.868 2°54.543 14.1564 4.065182 33.48128 -2.458615
2012-06-13 12:06:50 51°33.866 2°54.543 14.1613 4.064456 33.478969 -2.458615
2012-06-13 12:07:50 51°33.861 2°54.541 14.1571 4.064871 33.474062 -2.458615
2012-06-13 12:08:51 51°33.855 2°54.535 14.149 4.064456 33.478243 -2.458615
2012-06-13 12:09:50 51°33.847 2°54.526 14.1486 4.063316 33.473574 -2.458615
2012-06-13 12:10:51 51°33.838 2°54.515 14.158 4.063316 33.472121 -2.458615
2012-06-13 12:11:50 51°33.83 2°54.512 14.1584 4.064042 33.472978 -2.458615
2012-06-13 12:12:50 51°33.824 2°54.516 14.1524 4.064145 33.473931 -2.458615
2012-06-13 12:13:50 51°33.822 2°54.522 14.1632 4.063731 33.468667 -2.458615
2012-06-13 12:14:51 51°33.821 2°54.531 14.1331 4.064042 33.472978 -2.458615
2012-06-13 12:15:50 51°33.839 2°54.569 14.1497 4.061865 33.467498 -2.458615
2012-06-13 12:16:50 51°33.935 2°54.643 14.1446 4.062176 33.464544 -2.458615
2012-06-13 12:17:50 51°34.043 2°54.749 14.1555 4.06114 33.457193 -2.458615
2012-06-13 12:18:51 51°34.095 2°54.883 14.1673 4.062176 33.450746 -2.458615
2012-06-13 12:19:50 51°34.092 2°54.957 14.1668 4.063005 33.443853 -2.458615
2012-06-13 12:20:50 51°34.084 2°55.002 14.186 4.061554 33.438501 -2.458615
2012-06-13 12:21:50 51°34.078 2°55.029 14.1947 4.062279 33.427763 -2.458615
2012-06-13 12:22:50 51°34.074 2°55.043 14.188 4.061346 33.417747 -2.458615
2012-06-13 12:23:51 51°34.071 2°55.045 14.1837 4.059688 33.406864 -2.458615
2012-06-13 12:24:50 51°34.066 2°55.044 14.1982 4.058755 33.401919 -2.458615
2012-06-13 12:25:51 51°34.061 2°55.04 14.2147 4.060102 33.394742 -2.458615
2012-06-13 12:26:50 51°34.056 2°55.034 14.2311 4.061139 33.397019 -2.458615
2012-06-13 12:27:50 51°34.049 2°55.027 14.2388 4.06259 33.392974 -2.458615
2012-06-13 12:28:50 51°34.041 2°55.017 14.2212 4.061968 33.3851 -2.458615
2012-06-13 12:29:50 51°34.032 2°55.006 14.2026 4.059895 33.381988 -2.458615
2012-06-13 12:30:50 51°34.021 2°54.993 14.204 4.057822 33.376705 -2.458615
2012-06-13 12:31:50 51°34.01 2°54.979 14.2189 4.057822 33.371642 -2.458615
2012-06-13 12:32:51 51°34 2°54.964 14.205 4.058651 33.372744 -2.458615
2012-06-13 12:33:50 51°33.989 2°54.949 14.217 4.058029 33.371375 -2.458615
2012-06-13 12:34:51 51°33.978 2°54.933 14.2252 4.058444 33.368673 -2.458615
2012-06-13 12:35:51 51°33.968 2°54.918 14.2141 4.059377 33.371449 -2.458615
2012-06-13 12:36:50 51°33.956 2°54.902 14.2197 4.058651 33.369852 -2.458615
2012-06-13 12:37:51 51°33.944 2°54.887 14.2231 4.059066 33.368596 -2.458615
2012-06-13 12:38:50 51°33.934 2°54.871 14.2066 4.059066 33.373656 -2.458615
2012-06-13 12:39:51 51°33.922 2°54.855 14.2174 4.058444 33.371564 -2.458615
2012-06-13 12:40:50 51°33.911 2°54.839 14.2035 4.058548 33.373239 -2.458615
2012-06-13 12:41:51 51°33.9 2°54.823 14.2021 4.058029 33.372821 -2.458615
2012-06-13 12:42:50 51°33.888 2°54.808 14.2188 4.057926 33.371147 -2.458615
2012-06-13 12:43:50 51°33.876 2°54.793 14.2054 4.058962 33.374874 -2.458615
2012-06-13 12:44:50 51°33.865 2°54.779 14.1989 4.058237 33.379063 -2.458615
2012-06-13 12:45:50 51°33.854 2°54.765 14.2042 4.05803 33.377161 -2.458615
2012-06-13 12:46:51 51°33.842 2°54.75 14.2212 4.058237 33.372554 -2.458615
2012-06-13 12:47:50 51°33.831 2°54.736 14.2169 4.059584 33.377688 -2.458615
2012-06-13 12:48:51 51°33.818 2°54.722 14.2021 4.059273 33.381343 -2.458615
2012-06-13 12:49:50 51°33.806 2°54.707 14.2152 4.05834 33.378568 -2.458615
2012-06-13 12:50:51 51°33.792 2°54.691 14.2251 4.05948 33.376014 -2.458615
2012-06-13 12:51:50 51°33.779 2°54.675 14.2254 4.060517 33.378295 -2.458615
2012-06-13 12:52:50 51°33.764 2°54.658 14.2285 4.060724 33.385981 -2.458615
2012-06-13 12:53:50 51°33.751 2°54.641 14.2275 4.061139 33.381831 -2.458615
2012-06-13 12:54:50 51°33.737 2°54.625 14.247 4.061553 33.386358 -2.458615
2012-06-13 12:55:51 51°33.725 2°54.608 14.249 4.063211 33.381332 -2.458615
2012-06-13 12:56:50 51°33.712 2°54.596 14.2193 4.063211 33.390003 -2.458615
2012-06-13 12:57:51 51°33.704 2°54.604 14.2207 4.060828 33.387655 -2.458615
2012-06-13 12:58:50 51°33.704 2°54.622 14.2412 4.060828 33.376811 -2.458615
2012-06-13 12:59:51 51°33.707 2°54.636 14.2384 4.062071 33.378102 -2.458615
2012-06-13 13:00:50 51°33.706 2°54.642 14.265 4.061967 33.374262 -2.458615
2012-06-13 13:01:50 51°33.704 2°54.641 14.2423 4.063211 33.376277 -2.458615
2012-06-13 13:02:50 51°33.699 2°54.638 14.239 4.061138 33.373159 -2.458615
2012-06-13 13:03:50 51°33.693 2°54.632 14.2604 4.059998 33.356205 -2.458615
2012-06-13 13:04:51 51°33.686 2°54.626 14.257 4.061138 33.356552 -2.458615
2012-06-13 13:05:51 51°33.685 2°54.627 14.2477 4.060931 33.353208 -2.458615
2012-06-13 13:06:50 51°33.692 2°54.63 14.2222 4.059273 33.35605 -2.458615
2012-06-13 13:07:51 51°33.698 2°54.632 14.225 4.057096 33.346919 -2.458615
2012-06-13 13:08:51 51°33.699 2°54.631 14.2294 4.056785 33.343344 -2.458615
2012-06-13 13:09:50 51°33.7 2°54.627 14.227 4.056993 33.344524 -2.458615
2012-06-13 13:10:51 51°33.699 2°54.624 14.2178 4.056578 33.341443 -2.458615
2012-06-13 13:11:50 51°33.695 2°54.623 14.2235 4.055749 33.341058 -2.458615
2012-06-13 13:12:50 51°33.689 2°54.625 14.2511 4.05606 33.33669 -2.458615
2012-06-13 13:13:51 51°33.684 2°54.642 14.261 4.057925 33.334313 -2.458615
2012-06-13 13:14:50 51°33.686 2°54.66 14.2618 4.058962 33.33588 -2.458615
2012-06-13 13:15:12 51°12.199 2°53.338 16.8609 0.060087 0.36384 -2.458615
2012-06-13 13:16:00 51°33.683 2°54.666 14.2655 4.058443 33.330409 -2.458615
2012-06-13 13:17:00 51°33.679 2°54.667 14.253 4.058443 33.328967 -2.458615
2012-06-13 13:18:00 51°33.674 2°54.662 14.2687 4.056992 33.330089 -2.458615
2012-06-13 13:19:00 51°33.704 2°54.667 14.2717 4.057614 33.316323 -2.458615
2012-06-13 13:20:00 51°33.786 2°54.588 14.2719 4.057925 33.312687 -2.458615
2012-06-13 13:21:00 51°33.848 2°54.419 14.3146 4.058029 33.313637 -2.458615
2012-06-13 13:22:00 51°33.848 2°54.158 14.3074 4.061448 33.31328 -2.458615
2012-06-13 13:23:00 51°33.819 2°53.862 14.2694 4.06093 33.320052 -2.458615
2012-06-13 13:24:00 51°33.758 2°53.571 14.2793 4.059894 33.340823 -2.458615
2012-06-13 13:25:00 51°33.666 2°53.3 14.2464 4.064869 33.381369 -2.458615
2012-06-13 13:26:00 51°33.569 2°53.033 14.2392 4.065699 33.403419 -2.458615
2012-06-13 13:27:00 51°33.475 2°52.763 14.2456 4.065803 33.41811 -2.458615
2012-06-13 13:28:00 51°33.385 2°52.487 14.2487 4.066839 33.418936 -2.458615
2012-06-13 13:29:00 51°33.306 2°52.202 14.2599 4.069741 33.434701 -2.458615
2012-06-13 13:30:00 51°33.202 2°51.945 14.2606 4.072436 33.460137 -2.458615
2012-06-13 13:31:00 51°33.038 2°51.81 14.307 4.076789 33.48485 -2.458615
2012-06-13 13:32:00 51°32.851 2°51.783 14.3549 4.083422 33.527551 -2.458615
2012-06-13 13:32:59 51°32.664 2°51.782 14.4086 4.086531 33.502479 -2.458615
2012-06-13 13:33:59 51°32.473 2°51.762 14.4476 4.089847 33.483724 -2.458615
2012-06-13 13:35:00 51°32.279 2°51.737 14.4832 4.09078 33.468467 -2.458615
2012-06-13 13:36:00 51°32.088 2°51.716 14.5567 4.090364 33.422972 -2.458615
2012-06-13 13:37:00 51°31.898 2°51.697 14.6612 4.092022 33.381446 -2.458615
2012-06-13 13:37:59 51°31.713 2°51.691 14.7613 4.094093 33.302514 -2.458615
2012-06-13 13:38:59 51°31.524 2°51.679 14.7517 4.09544 33.234511 -2.458615
2012-06-13 13:40:00 51°31.329 2°51.651 14.7356 4.089946 33.205984 -2.458615
2012-06-13 13:41:00 51°31.134 2°51.67 14.7537 4.091605 33.221721 -2.458615
2012-06-13 13:42:00 51°30.919 2°51.713 14.7496 4.092538 33.237264 -2.458615
2012-06-13 13:43:00 51°30.703 2°51.732 14.7823 4.090154 33.224158 -2.458615
2012-06-13 13:44:00 51°30.484 2°51.744 14.8215 4.087976 33.152792 -2.458615
2012-06-13 13:45:00 51°30.266 2°51.757 14.8632 4.089842 33.150618 -2.458615
2012-06-13 13:46:00 51°30.049 2°51.76 14.9512 4.088597 33.094995 -2.458615
2012-06-13 13:47:00 51°29.834 2°51.774 15.0156 4.085901 32.997741 -2.458615
2012-06-13 13:48:00 51°29.618 2°51.782 15.0294 4.083931 32.939505 -2.458615
2012-06-13 13:49:00 51°29.402 2°51.787 15.0556 4.078852 32.881966 -2.458615
2012-06-13 13:50:00 51°29.185 2°51.777 15.0323 4.07823 32.858995 -2.458615
2012-06-13 13:51:00 51°28.967 2°51.789 15.0341 4.080096 32.891068 -2.458615
2012-06-13 13:52:00 51°28.75 2°51.798 14.862 4.083724 32.931367 -2.458615
2012-06-13 13:53:00 51°28.536 2°51.814 14.9885 4.08839 33.076957 -2.458615
2012-06-13 13:54:00 51°28.323 2°51.813 15.0544 4.088077 32.984505 -2.458615
2012-06-13 13:55:00 51°28.109 2°51.842 15.1462 4.093052 32.975563 -2.458615
2012-06-13 13:56:00 51°27.898 2°51.873 15.1748 4.100929 32.981603 -2.458615
2012-06-13 13:57:00 51°27.689 2°51.91 15.201 4.104349 32.98658 -2.458615
2012-06-13 13:58:00 51°27.477 2°51.946 15.2126 4.105489 32.974585 -2.458615
2012-06-13 13:59:00 51°27.267 2°51.986 15.2181 4.108494 32.989731 -2.458615
2012-06-13 14:00:00 51°27.054 2°52.011 15.2278 4.111811 33.009045 -2.458615
2012-06-13 14:01:00 51°26.841 2°52.038 15.2412 4.10383 32.930612 -2.458615
2012-06-13 14:02:00 51°26.648 2°52.144 15.2271 4.100409 32.899288 -2.458615
2012-06-13 14:03:00 51°26.499 2°52.315 15.197 4.098543 32.887421 -2.458615
2012-06-13 14:04:00 51°26.423 2°52.332 15.1485 4.101032 32.947807 -2.458615
2012-06-13 14:05:00 51°26.394 2°52.316 15.1537 4.099685 32.959321 -2.458615
2012-06-13 14:06:00 51°26.371 2°52.297 15.1514 4.09927 32.954907 -2.458615
2012-06-13 14:07:00 51°26.351 2°52.272 15.1554 4.099374 32.957226 -2.458615
2012-06-13 14:08:00 51°26.333 2°52.239 15.1562 4.098855 32.95327 -2.458615
2012-06-13 14:09:00 51°26.309 2°52.231 15.1605 4.098752 32.950951 -2.458615
2012-06-13 14:10:00 51°26.248 2°52.26 15.1695 4.098441 32.941913 -2.458615
2012-06-13 14:11:00 51°26.102 2°52.307 15.1943 4.097611 32.922684 -2.458615
2012-06-13 14:12:00 51°25.924 2°52.35 15.2231 4.096471 32.890297 -2.458615
2012-06-13 14:13:00 51°25.727 2°52.395 15.2288 4.103208 32.920197 -2.458615
2012-06-13 14:14:00 51°25.521 2°52.368 15.2077 4.111293 33.003707 -2.458615
2012-06-13 14:15:00 51°25.315 2°52.323 15.2048 4.103104 32.947667 -2.458615
2012-06-13 14:16:00 51°25.106 2°52.283 15.2551 4.104659 32.949123 -2.458615
2012-06-13 14:17:00 51°24.897 2°52.271 15.1344 4.112122 32.989632 -2.458615
2012-06-13 14:18:00 51°24.684 2°52.257 15.0537 4.113886 33.11679 -2.458615
2012-06-13 14:19:00 51°24.471 2°52.226 15.0239 4.109533 33.121699 -2.458615
2012-06-13 14:20:00 51°24.257 2°52.199 15.0221 4.104454 33.101189 -2.458615
2012-06-13 14:21:00 51°24.044 2°52.167 15.0629 4.102588 33.076699 -2.458615
2012-06-13 14:22:00 51°23.829 2°52.137 15.0913 4.103106 33.045735 -2.458615
2012-06-13 14:23:00 51°23.618 2°52.104 15.065 4.102069 33.023866 -2.458615
2012-06-13 14:24:00 51°23.399 2°52.067 15.0686 4.098649 33.011945 -2.458615
2012-06-13 14:25:00 51°23.177 2°52.034 15.1468 4.097301 32.998439 -2.458615
2012-06-13 14:26:00 51°22.955 2°52.015 15.2729 4.096471 32.909688 -2.458615
2012-06-13 14:27:00 51°22.735 2°51.992 15.3256 4.103829 32.877397 -2.458615
2012-06-13 14:28:00 51°22.516 2°51.968 15.377 4.107974 32.878599 -2.458615
2012-06-13 14:29:00 51°22.296 2°51.929 15.4255 4.107352 32.829017 -2.458615
2012-06-13 14:30:00 51°22.077 2°51.908 15.4557 4.10704 32.785089 -2.458615
2012-06-13 14:31:00 51°21.857 2°51.88 15.4553 4.106211 32.757855 -2.458615
2012-06-13 14:32:00 51°21.64 2°51.85 15.4376 4.103516 32.738647 -2.458615
2012-06-13 14:33:00 51°21.424 2°51.84 15.4274 4.089108 32.621986 -2.458615
2012-06-13 14:34:00 51°21.206 2°51.824 15.498 4.072627 32.467199 -2.458615
2012-06-13 14:35:00 51°20.99 2°51.803 15.4965 4.065371 32.350682 -2.458615
2012-06-13 14:36:00 51°20.772 2°51.79 15.6241 4.04858 32.185602 -2.458615
2012-06-13 14:37:00 51°20.557 2°51.786 15.6133 4.084856 32.422378 -2.458615
2012-06-13 14:38:01 51°20.338 2°51.789 15.5806 4.083405 32.443216 -2.458615
2012-06-13 14:39:00 51°20.127 2°51.788 15.5718 4.081436 32.444648 -2.458615
2012-06-13 14:40:00 51°19.91 2°51.765 15.639 4.081021 32.438272 -2.458615
2012-06-13 14:41:00 51°19.696 2°51.77 15.7474 4.077911 32.338065 -2.458615
2012-06-13 14:42:00 51°19.487 2°51.822 15.7807 4.062363 32.146567 -2.458615
2012-06-13 14:43:00 51°19.282 2°51.895 15.8207 4.049095 31.973922 -2.458615
2012-06-13 14:44:00 51°19.079 2°51.972 15.7732 4.037798 31.862625 -2.458615
2012-06-13 14:45:00 51°18.876 2°52.04 15.752 4.025259 31.818694 -2.458615
2012-06-13 14:46:00 51°18.67 2°52.102 15.8094 4.019869 31.740333 -2.458615
2012-06-13 14:47:00 51°18.462 2°52.158 15.7811 4.019972 31.716984 -2.458615
2012-06-13 14:48:00 51°18.254 2°52.218 15.6555 4.0122 31.676118 -2.458615
2012-06-13 14:49:00 51°18.045 2°52.278 15.4867 4.010543 31.763355 -2.458615
2012-06-13 14:50:00 51°17.838 2°52.341 15.4784 3.999871 31.792577 -2.458615
2012-06-13 14:51:00 51°17.632 2°52.424 15.5648 3.986087 31.638187 -2.458615
2012-06-13 14:52:00 51°17.43 2°52.524 15.5862 3.989714 31.639966 -2.458615
2012-06-13 14:53:00 51°17.229 2°52.624 15.5512 3.99759 31.697715 -2.458615
2012-06-13 14:54:00 51°17.031 2°52.734 15.5913 4.008265 31.81191 -2.458615
2012-06-13 14:55:00 51°16.838 2°52.848 15.5911 4.014068 31.832128 -2.458615
2012-06-13 14:56:01 51°16.641 2°52.966 15.5985 4.02298 31.903635 -2.458615
2012-06-13 14:57:00 51°16.454 2°53.085 15.6077 4.037283 32.032779 -2.458615
2012-06-13 14:58:00 51°16.273 2°53.22 15.5719 4.002771 31.734273 -2.458615
2012-06-13 14:59:00 51°16.085 2°53.333 15.6574 3.969195 31.441703 -2.458615
2012-06-13 15:00:00 51°15.897 2°53.453 15.7385 3.955827 31.262045 -2.458615
2012-06-13 15:01:00 51°15.718 2°53.589 15.8508 3.963079 31.261746 -2.458615
2012-06-13 15:02:00 51°15.541 2°53.728 15.8474 3.964114 31.183793 -2.458615
2012-06-13 15:03:00 51°15.366 2°53.871 15.7771 3.957172 31.14094 -2.458615
2012-06-13 15:04:00 51°15.202 2°54.038 15.7308 3.961521 31.037639 -2.458615
2012-06-13 15:05:00 51°15.051 2°54.227 15.6675 0.531194 3.355396 -2.458615
2012-06-13 15:06:00 51°14.908 2°54.43 15.6078 0.125275 0.72939 -2.458615
2012-06-13 15:07:00 51°14.767 2°54.637 15.6426 0.073041 0.417786 -2.458615
2012-06-13 15:08:01 51°14.622 2°54.845 15.6496 0.074789 0.428362 -2.458615
2012-06-13 15:09:01 51°14.482 2°55.053 15.6443 0.083323 0.479269 -2.458615
2012-06-13 15:10:04 51°14.319 2°55.246 15.7694 0.084454 0.486282 -2.458615
2012-06-13 15:11:04 51°14.167 2°55.382 15.8479 0.081986 0.471782 -2.458615
2012-06-13 15:12:04 51°14.056 2°55.463 15.8304 0.080033 0.460002 -2.458615
2012-06-13 15:13:04 51°13.968 2°55.528 15.9144 0.077874 0.446894 -2.458615
2012-06-13 15:14:04 51°13.864 2°55.6 15.8835 0.076023 0.435858 -2.458615
2012-06-13 15:15:04 51°13.779 2°55.681 15.9981 0.074172 0.424758 -2.458615
2012-06-13 15:16:04 51°13.712 2°55.789 16.1544 0.07263 0.415514 -2.458615
2012-06-13 15:17:04 51°13.664 2°55.898 16.2529 0.071396 0.40811 -2.458615
2012-06-13 15:18:04 51°13.637 2°55.985 16.2314 0.070162 0.400731 -2.458615
2012-06-13 15:19:04 51°13.634 2°56.007 16.2017 0.069134 0.394562 -2.458615
2012-06-13 15:20:04 51°13.632 2°56.013 16.2079 0.068209 0.388986 -2.458615